​ ​

Форум клана ЧПУшников

Информация о пользователе

Привет, Гость! Войдите или зарегистрируйтесь.


Вы здесь » Форум клана ЧПУшников » Лазерные станки


Лазерные станки

Тем 481 страница 560 из 637

Тема Ответов Просмотров Последнее сообщение
11 809 07-07-2016 15:18:42  Hotory
25 763 27-06-2016 21:44:32  Salon-max
38 2163 27-06-2016 05:30:23  Юрецкий
14 460 26-06-2016 11:49:07  Quark
48 1360 24-06-2016 20:06:01  Иван1985
9 675 24-06-2016 19:54:50  Иван1985
16 715 24-06-2016 15:25:23  Sergey AA
2 132 24-06-2016 12:14:53  messer1988
8 528 22-06-2016 15:04:25  Sergey AA
8 1540 16-06-2016 22:36:09  megagad
491 Лазерное оборудование  Администратор  [ 1 2 3 ]
204 18576 12-06-2016 11:02:33  Andrey55
4 261 06-06-2016 09:19:33  Zmeei
24 1067 02-06-2016 16:29:32  Sofka
16 419 02-06-2016 09:43:13  ilcomp
3 160 31-05-2016 11:04:49  SmileCat
14 509 29-05-2016 10:38:37  Neudrums
19 1053 28-05-2016 00:03:48  Sborka
19 259 25-05-2016 12:15:46  Mikky
8 435 24-05-2016 15:31:24  sonr
21 3182 23-05-2016 23:42:46  Avel
501 Волнистый рез  angrydemon
4 279 23-05-2016 17:44:30  YuSTas
2 132 05-05-2016 11:02:05  Kuz
7 445 04-05-2016 01:16:19  snowman
10 400 28-04-2016 20:21:01  Kirian
1 166 28-04-2016 19:58:34  Kirian
37 1229 28-04-2016 14:14:04  neotex
3 784 27-04-2016 20:39:04  andrey_e
6 301 27-04-2016 16:16:09  denisej
509 Reci s2  Neudrums
35 935 26-04-2016 21:17:31  Элинка
5 515 25-04-2016 16:52:18  MPN
15 1711 23-04-2016 22:53:06  Sokrat
9 581 23-04-2016 17:45:11  Tab
35 1233 23-04-2016 13:05:00  Valera5609
18 1053 21-04-2016 12:07:58  f.laser
1 182 17-04-2016 23:10:04  megagad
516 Резка с углекислотой  Виктор Краски
23 883 17-04-2016 08:59:55  Flint2015
13 1929 15-04-2016 11:34:20  ImageLaser
11 324 11-04-2016 14:35:21  MaxMaster
13 415 09-04-2016 20:30:46  aldushin
5 294 06-04-2016 17:28:09  daguss
521 Закрыта Фото готовых работ выполненных на лазере  Администратор  [ 1 2 3  10 ]
991 99074 29-03-2016 17:50:18  sva-don
522 Закрыта Резко упала мощность  Neudrums
10 403 24-03-2016 00:59:57  Neudrums
5 512 22-03-2016 20:12:39  Дилик
524 Прошу помощи.  Назар
5 371 16-03-2016 09:51:09  Назар
8 260 14-03-2016 16:51:53  Расулыч
7 531 10-03-2016 20:36:59  chirik
5 816 07-03-2016 20:32:32  Flint2015
19 1807 04-03-2016 17:27:39  Airside
4 243 29-02-2016 22:43:44  nikson
5 192 27-02-2016 08:50:26  Flint2015
531 Тестирование размера реза  Виктор Краски
9 499 26-02-2016 16:55:55  daguss
532 кривая резка  Восходник
17 517 26-02-2016 00:06:30  semerochka
80 6753 22-02-2016 20:51:36  Kinetic
17 1059 22-02-2016 12:02:26  Kinetic
5 706 14-02-2016 15:24:59  gabber
7 621 14-02-2016 12:43:54  Zippo
12 405 12-02-2016 17:15:38  Yaroslavl
2 231 12-02-2016 10:23:44  Администратор
22 925 07-02-2016 15:27:40  Imobile
6 346 28-01-2016 17:09:21  StarPOM
25 1171 26-01-2016 15:23:58  Zippo
3 270 07-01-2016 00:45:42  okruk
4 265 05-01-2016 10:25:43  markaru
7 239 24-12-2015 12:08:34  lexus80
22 3624 21-12-2015 14:22:31  Kuz
14 424 14-12-2015 15:59:50  YuSTas
8 351 12-12-2015 20:20:10  Shamankiller
15 748 12-12-2015 18:02:39  racon75
38 1051 08-12-2015 23:46:50  asor
35 945 08-12-2015 18:35:57  dm6
8 381 07-12-2015 21:25:28  Dimon
25 937 04-12-2015 21:36:10  Silmaril
553 Лазерный станок Kamach II 1280 AS  радион рашитович
4 250 04-12-2015 20:36:20  Airside
4 317 04-12-2015 10:56:16  Drakonstar
9 691 29-11-2015 02:45:00  Лазорез
38 859 27-11-2015 18:12:36  ЫХ-000
41 1599 27-11-2015 12:34:06  Slym
44 1960 22-11-2015 11:50:31  _king_
559 mpc6525 - завис  Dr_dober
2 282 16-11-2015 12:54:39  Dr_dober
30 2314 09-11-2015 16:17:15  bort747

Вы здесь » Форум клана ЧПУшников » Лазерные станки